createdAt,value
2017-12-01T00:00:45.093Z,75.10
2017-12-01T00:03:13.382Z,73.60
2017-12-01T00:05:41.543Z,73.80
2017-12-01T00:08:10.448Z,77.80
2017-12-01T00:10:40.690Z,77.90
2017-12-01T00:13:08.842Z,75.00
2017-12-01T00:15:37.013Z,76.60
2017-12-01T00:18:05.176Z,74.50
2017-12-01T00:20:34.199Z,73.60
2017-12-01T00:23:02.350Z,73.60
2017-12-01T00:25:31.297Z,75.60
2017-12-01T00:27:59.477Z,75.60
2017-12-01T00:30:27.695Z,74.80
2017-12-01T00:32:56.801Z,74.20
2017-12-01T00:35:24.951Z,74.10
2017-12-01T00:37:55.068Z,72.20
2017-12-01T00:40:24.078Z,71.20
2017-12-01T00:42:52.354Z,71.10
2017-12-01T00:45:20.511Z,71.40
2017-12-01T00:47:49.452Z,73.80
2017-12-01T00:50:18.616Z,73.80
2017-12-01T00:52:46.774Z,73.30
2017-12-01T00:55:15.705Z,71.20
2017-12-01T00:57:44.549Z,71.20
2017-12-01T01:00:13.586Z,72.90
2017-12-01T01:02:41.760Z,72.90
2017-12-01T01:05:09.933Z,76.20
2017-12-01T01:07:38.114Z,74.60
2017-12-01T01:10:07.280Z,74.80
2017-12-01T01:12:35.441Z,76.20
2017-12-01T01:15:04.363Z,74.90
2017-12-01T01:17:32.533Z,74.90
2017-12-01T01:20:00.801Z,75.00
2017-12-01T01:22:28.964Z,76.50
2017-12-01T01:24:57.889Z,73.10
2017-12-01T01:27:26.040Z,73.10
2017-12-01T01:29:54.220Z,72.40
2017-12-01T01:32:23.124Z,73.50
2017-12-01T01:34:51.290Z,73.50
2017-12-01T01:37:19.502Z,73.80
2017-12-01T01:39:47.653Z,76.50
2017-12-01T01:42:15.907Z,75.20
2017-12-01T01:44:44.096Z,75.70
2017-12-01T01:47:12.769Z,74.40
2017-12-01T01:49:41.697Z,74.60
2017-12-01T01:52:09.857Z,74.60
2017-12-01T01:54:38.002Z,73.40
2017-12-01T01:57:06.152Z,71.70
2017-12-01T01:59:34.311Z,70.30
2017-12-01T02:02:02.442Z,71.30
2017-12-01T02:04:30.584Z,71.90
2017-12-01T02:06:58.768Z,71.70
2017-12-01T02:09:27.696Z,68.70
2017-12-01T02:11:55.864Z,68.70
2017-12-01T02:14:24.035Z,66.30
2017-12-01T02:16:52.159Z,68.70
2017-12-01T02:19:20.307Z,71.60
2017-12-01T02:21:48.546Z,71.90
2017-12-01T02:24:16.858Z,73.90
2017-12-01T02:26:45.010Z,73.80
2017-12-01T02:29:13.177Z,69.50
2017-12-01T02:31:41.975Z,71.10
2017-12-01T02:34:10.136Z,74.30
2017-12-01T02:36:38.310Z,74.80
2017-12-01T02:39:06.475Z,74.20
2017-12-01T02:41:34.784Z,71.70
2017-12-01T02:44:02.933Z,72.10
2017-12-01T02:46:31.108Z,71.60
2017-12-01T02:48:59.266Z,71.80
2017-12-01T02:51:27.447Z,73.40
2017-12-01T02:53:55.747Z,73.40
2017-12-01T02:56:23.896Z,70.80
2017-12-01T02:58:52.063Z,71.80
2017-12-01T03:01:20.349Z,72.80
2017-12-01T03:03:48.496Z,73.50
2017-12-01T03:06:17.406Z,72.20
2017-12-01T03:08:45.626Z,72.10
2017-12-01T03:11:13.874Z,71.90
2017-12-01T03:13:42.035Z,70.30
2017-12-01T03:16:10.200Z,71.90
2017-12-01T03:18:38.994Z,71.90
2017-12-01T03:21:08.195Z,71.60
2017-12-01T03:23:36.339Z,71.90
2017-12-01T03:26:04.498Z,72.80
2017-12-01T03:28:32.674Z,74.20
2017-12-01T03:31:01.963Z,72.10
2017-12-01T03:33:30.109Z,74.30
2017-12-01T03:35:59.171Z,74.40
2017-12-01T03:38:28.178Z,76.40
2017-12-01T03:40:56.454Z,76.50
2017-12-01T03:43:24.626Z,77.60
2017-12-01T03:45:52.778Z,74.10
2017-12-01T03:48:21.696Z,72.00
2017-12-01T03:50:49.970Z,72.00
2017-12-01T03:53:18.121Z,73.00
2017-12-01T03:55:47.052Z,76.10
2017-12-01T03:58:15.221Z,76.10
2017-12-01T04:00:43.498Z,76.90
2017-12-01T04:03:11.647Z,77.90
2017-12-01T04:05:39.924Z,77.90
2017-12-01T04:08:08.826Z,76.60
2017-12-01T04:10:37.186Z,76.60
2017-12-01T04:13:05.476Z,76.60
2017-12-01T04:15:33.639Z,75.00
2017-12-01T04:18:02.563Z,75.20
2017-12-01T04:20:31.836Z,75.30
2017-12-01T04:23:01.880Z,72.90
2017-12-01T04:25:30.272Z,72.80
2017-12-01T04:27:59.160Z,73.30
2017-12-01T04:30:28.313Z,74.60
2017-12-01T04:32:57.749Z,74.40
2017-12-01T04:35:26.236Z,74.20
2017-12-01T04:37:55.077Z,74.20
2017-12-01T04:40:24.736Z,74.20
2017-12-01T04:42:53.038Z,74.10
2017-12-01T04:45:22.145Z,75.20
2017-12-01T04:47:50.563Z,75.30
2017-12-01T04:50:27.287Z,75.40
2017-12-01T04:52:56.727Z,76.10
2017-12-01T04:55:24.909Z,78.30
2017-12-01T04:57:53.843Z,78.20
2017-12-01T05:00:25.295Z,78.10
2017-12-01T05:02:53.981Z,76.70
2017-12-01T05:05:22.126Z,76.00
2017-12-01T05:07:50.394Z,76.60
2017-12-01T05:10:19.457Z,76.90
2017-12-01T05:12:47.611Z,76.90
2017-12-01T05:15:15.769Z,77.40
2017-12-01T05:17:43.952Z,74.00
2017-12-01T05:20:13.393Z,72.50
2017-12-01T05:22:41.521Z,71.60
2017-12-01T05:25:10.449Z,72.20
2017-12-01T05:27:38.674Z,71.70
2017-12-01T05:30:09.623Z,67.70
2017-12-01T05:32:37.791Z,70.30
2017-12-01T05:35:06.670Z,69.00
2017-12-01T05:37:34.886Z,69.80
2017-12-01T05:40:03.070Z,71.40
2017-12-01T05:42:31.257Z,72.20
2017-12-01T05:44:59.390Z,72.10
2017-12-01T05:47:27.545Z,73.10
2017-12-01T05:49:57.234Z,74.20
2017-12-01T05:52:25.388Z,74.80
2017-12-01T05:54:53.578Z,73.30
2017-12-01T05:57:21.752Z,74.60
2017-12-01T05:59:50.752Z,73.30
2017-12-01T06:02:20.256Z,71.90
2017-12-01T06:04:48.558Z,71.90
2017-12-01T06:07:16.756Z,71.80
2017-12-01T06:09:45.022Z,71.90
2017-12-01T06:12:13.206Z,72.10
2017-12-01T06:14:41.431Z,71.60
2017-12-01T06:17:11.204Z,75.20
2017-12-01T06:19:39.401Z,75.90
2017-12-01T06:22:07.574Z,73.50
2017-12-01T06:24:35.746Z,73.60
2017-12-01T06:27:03.911Z,75.30
2017-12-01T06:29:32.124Z,74.70
2017-12-01T06:32:01.123Z,74.00
2017-12-01T06:34:29.303Z,73.90
2017-12-01T06:36:57.510Z,74.10
2017-12-01T06:39:25.723Z,75.30
2017-12-01T06:41:54.088Z,76.30
2017-12-01T06:44:22.283Z,77.20
2017-12-01T06:46:50.476Z,76.60
2017-12-01T06:49:18.667Z,78.90
2017-12-01T06:51:48.090Z,80.60
2017-12-01T06:54:16.296Z,81.70
2017-12-01T06:56:44.515Z,80.70
2017-12-01T06:59:12.684Z,80.20
2017-12-01T07:01:44.467Z,80.20
2017-12-01T07:04:12.677Z,81.40
2017-12-01T07:06:41.070Z,80.00
2017-12-01T07:09:09.796Z,79.90
2017-12-01T07:11:38.117Z,80.00
2017-12-01T07:14:06.316Z,78.50
2017-12-01T07:16:34.563Z,78.40
2017-12-01T07:19:02.714Z,76.10
2017-12-01T07:21:30.955Z,76.20
2017-12-01T07:23:59.146Z,78.30
2017-12-01T07:26:39.328Z,78.00
2017-12-01T07:29:07.581Z,80.20
2017-12-01T07:31:39.359Z,80.20
2017-12-01T07:34:08.623Z,78.80
2017-12-01T07:36:36.891Z,80.30
2017-12-01T07:39:05.306Z,80.20
2017-12-01T07:41:35.630Z,80.20
2017-12-01T07:44:13.845Z,79.50
2017-12-01T07:46:42.099Z,78.60
2017-12-01T07:49:10.360Z,80.20
2017-12-01T07:51:42.057Z,79.60
2017-12-01T07:54:10.647Z,78.90
2017-12-01T07:56:38.997Z,78.80
2017-12-01T07:59:07.275Z,79.00
2017-12-01T08:01:35.573Z,75.40
2017-12-01T08:04:03.905Z,75.20
2017-12-01T08:06:32.923Z,69.40
2017-12-01T08:09:01.222Z,69.40
2017-12-01T08:11:29.703Z,71.20
2017-12-01T08:13:58.086Z,71.20
2017-12-01T08:16:38.207Z,73.10
2017-12-01T08:19:08.431Z,73.80
2017-12-01T08:21:48.717Z,73.50
2017-12-01T08:24:28.813Z,73.70
2017-12-01T08:26:58.003Z,74.00
2017-12-01T08:29:27.297Z,73.40
2017-12-01T08:31:56.124Z,69.40
2017-12-01T08:34:25.052Z,71.90
2017-12-01T08:36:53.302Z,69.30
2017-12-01T08:39:21.559Z,70.50
2017-12-01T08:41:51.083Z,67.90
2017-12-01T08:44:19.509Z,66.50
2017-12-01T08:46:47.813Z,64.10
2017-12-01T08:49:17.846Z,63.80
2017-12-01T08:51:46.318Z,64.60
2017-12-01T08:54:14.781Z,67.10
2017-12-01T08:56:43.225Z,68.50
2017-12-01T08:59:11.388Z,72.10
2017-12-01T09:01:39.635Z,73.80
2017-12-01T09:04:07.924Z,71.80
2017-12-01T09:06:36.336Z,69.00
2017-12-01T09:09:04.645Z,69.60
2017-12-01T09:11:33.580Z,69.80
2017-12-01T09:14:02.168Z,70.60
2017-12-01T09:16:30.385Z,70.40
2017-12-01T09:18:58.575Z,71.30
2017-12-01T09:21:26.925Z,71.50
2017-12-01T09:23:55.168Z,69.60
2017-12-01T09:26:23.425Z,64.30
2017-12-01T09:28:51.606Z,63.50
2017-12-01T09:31:19.857Z,66.80
2017-12-01T09:33:48.164Z,66.20
2017-12-01T09:36:16.357Z,63.20
2017-12-01T09:38:44.566Z,61.10
2017-12-01T09:41:13.497Z,61.30
2017-12-01T09:43:41.846Z,61.60
2017-12-01T09:46:10.070Z,59.60
2017-12-01T09:48:38.274Z,59.30
2017-12-01T09:51:06.519Z,58.00
2017-12-01T09:53:34.729Z,59.60
2017-12-01T09:56:02.939Z,59.70
2017-12-01T09:58:31.152Z,58.50
2017-12-01T10:01:02.816Z,57.40
2017-12-01T10:03:31.037Z,56.20
2017-12-01T10:05:59.372Z,52.60
2017-12-01T10:08:27.664Z,54.50
2017-12-01T10:10:57.026Z,54.50
2017-12-01T10:13:25.283Z,55.30
2017-12-01T10:15:53.601Z,57.20
2017-12-01T10:18:21.829Z,54.70
2017-12-01T10:20:50.044Z,54.30
2017-12-01T10:23:18.366Z,53.60
2017-12-01T10:25:48.184Z,50.40
2017-12-01T10:28:16.419Z,50.40
2017-12-01T10:30:45.652Z,49.70
2017-12-01T10:33:13.803Z,49.10
2017-12-01T10:35:41.946Z,48.60
2017-12-01T10:38:15.478Z,48.50
2017-12-01T10:40:45.591Z,48.70
2017-12-01T10:43:14.309Z,48.90
2017-12-01T10:45:42.478Z,48.40
2017-12-01T10:48:11.265Z,50.70
2017-12-01T10:50:39.552Z,50.90
2017-12-01T10:53:07.739Z,52.30
2017-12-01T10:55:35.910Z,52.40
2017-12-01T10:58:04.991Z,53.70
2017-12-01T11:00:33.285Z,50.80
2017-12-01T11:03:01.445Z,49.70
2017-12-01T11:05:30.909Z,51.30
2017-12-01T11:07:59.072Z,52.40
2017-12-01T11:10:30.673Z,53.10
2017-12-01T11:12:58.975Z,57.40
2017-12-01T11:15:27.124Z,57.70
2017-12-01T11:17:56.058Z,59.90
2017-12-01T11:20:32.453Z,59.90
2017-12-01T11:23:00.657Z,60.30
2017-12-01T11:25:29.588Z,61.40
2017-12-01T11:27:57.735Z,60.80
2017-12-01T11:30:26.948Z,59.80
2017-12-01T11:32:55.094Z,61.50
2017-12-01T11:35:24.035Z,63.80
2017-12-01T11:37:52.191Z,63.80
2017-12-01T11:40:20.460Z,64.20
2017-12-01T11:42:48.648Z,63.70
2017-12-01T11:45:16.813Z,64.10
2017-12-01T11:47:44.959Z,64.60
2017-12-01T11:50:13.952Z,65.00
2017-12-01T11:52:42.885Z,61.20
2017-12-01T11:55:11.049Z,61.20
2017-12-01T11:57:39.497Z,62.00
2017-12-01T12:00:08.551Z,62.00
2017-12-01T12:02:36.689Z,62.00
2017-12-01T12:05:04.839Z,59.40
2017-12-01T12:07:33.016Z,58.60
2017-12-01T12:10:02.022Z,53.60
2017-12-01T12:12:30.178Z,53.70
2017-12-01T12:14:59.110Z,54.50
2017-12-01T12:17:27.275Z,54.50
2017-12-01T12:19:55.561Z,54.60
2017-12-01T12:22:23.748Z,53.40
2017-12-01T12:24:51.884Z,52.70
2017-12-01T12:27:20.093Z,52.70
2017-12-01T12:29:48.253Z,52.30
2017-12-01T12:32:17.569Z,52.40
2017-12-01T12:34:45.718Z,51.70
2017-12-01T12:37:13.892Z,53.30
2017-12-01T12:39:42.070Z,54.80
2017-12-01T12:42:10.212Z,57.70
2017-12-01T12:44:38.377Z,55.90
2017-12-01T12:47:06.558Z,53.80
2017-12-01T12:49:34.713Z,50.70
2017-12-01T12:52:03.660Z,51.20
2017-12-01T12:54:31.806Z,51.10
2017-12-01T12:57:00.733Z,49.70
2017-12-01T12:59:28.945Z,49.60
2017-12-01T13:01:57.117Z,50.50
2017-12-01T13:04:25.309Z,53.50
2017-12-01T13:06:53.457Z,54.70
2017-12-01T13:09:21.623Z,56.30
2017-12-01T13:11:53.671Z,56.70
2017-12-01T13:14:21.930Z,57.20
2017-12-01T13:16:50.072Z,55.90
2017-12-01T13:19:18.997Z,53.10
2017-12-01T13:21:55.448Z,53.10
2017-12-01T13:24:23.621Z,53.70
2017-12-01T13:26:51.925Z,55.20
2017-12-01T13:29:20.071Z,54.30
2017-12-01T13:31:49.100Z,54.50
2017-12-01T13:34:17.287Z,54.50
2017-12-01T13:36:45.480Z,56.50
2017-12-01T13:39:13.652Z,57.70
2017-12-01T13:41:44.923Z,53.10
2017-12-01T13:44:13.938Z,56.80
2017-12-01T13:46:42.105Z,56.80
2017-12-01T13:49:10.273Z,54.70
2017-12-01T13:51:40.219Z,54.80
2017-12-01T13:54:08.377Z,54.80
2017-12-01T13:56:36.560Z,58.00
2017-12-01T13:59:04.775Z,54.80
2017-12-01T14:01:32.932Z,57.70
2017-12-01T14:04:01.097Z,57.60
2017-12-01T14:06:29.273Z,57.70
2017-12-01T14:08:57.436Z,58.40
2017-12-01T14:11:27.523Z,59.60
2017-12-01T14:13:57.318Z,58.50
2017-12-01T14:16:25.566Z,57.10
2017-12-01T14:18:54.994Z,58.40
2017-12-01T14:21:29.306Z,60.00
2017-12-01T14:23:57.473Z,60.30
2017-12-01T14:26:27.507Z,58.80
2017-12-01T14:28:56.380Z,56.90
2017-12-01T14:31:30.306Z,58.00
2017-12-01T14:33:58.519Z,58.90
2017-12-01T14:36:26.679Z,57.60
2017-12-01T14:38:54.840Z,57.20
2017-12-01T14:41:23.137Z,56.70
2017-12-01T14:43:51.300Z,56.50
2017-12-01T14:46:23.026Z,56.30
2017-12-01T14:48:51.194Z,56.30
2017-12-01T14:51:22.802Z,57.50
2017-12-01T14:53:51.089Z,59.70
2017-12-01T14:56:20.278Z,58.80
2017-12-01T14:58:48.445Z,58.80
2017-12-01T15:01:16.720Z,60.10
2017-12-01T15:03:44.891Z,54.30
2017-12-01T15:06:14.590Z,53.10
2017-12-01T15:08:43.558Z,57.20
2017-12-01T15:11:12.785Z,57.00
2017-12-01T15:13:41.702Z,58.10
2017-12-01T15:16:09.867Z,58.10
2017-12-01T15:18:38.041Z,60.00
2017-12-01T15:21:06.311Z,60.80
2017-12-01T15:23:34.468Z,62.20
2017-12-01T15:26:03.385Z,62.70
2017-12-01T15:28:31.577Z,62.70
2017-12-01T15:31:02.324Z,65.70
2017-12-01T15:33:31.806Z,63.40
2017-12-01T15:36:03.781Z,65.80
2017-12-01T15:38:31.978Z,65.50
2017-12-01T15:41:07.242Z,66.00
2017-12-01T15:43:36.270Z,66.30
2017-12-01T15:46:04.437Z,66.30
2017-12-01T15:48:32.596Z,66.20
2017-12-01T15:51:06.008Z,62.40
2017-12-01T15:53:34.180Z,62.40
2017-12-01T15:56:02.378Z,63.60
2017-12-01T15:58:30.533Z,65.00
2017-12-01T16:01:02.590Z,64.20
2017-12-01T16:03:30.751Z,65.50
2017-12-01T16:06:01.733Z,64.70
2017-12-01T16:08:29.883Z,64.70
2017-12-01T16:10:58.161Z,65.40
2017-12-01T16:13:27.099Z,67.10
2017-12-01T16:15:56.244Z,67.00
2017-12-01T16:18:24.931Z,67.40
2017-12-01T16:20:53.923Z,69.60
2017-12-01T16:23:22.123Z,69.60
2017-12-01T16:25:50.294Z,69.40
2017-12-01T16:28:18.478Z,69.30
2017-12-01T16:30:48.422Z,70.50
2017-12-01T16:33:16.636Z,70.50
2017-12-01T16:35:44.812Z,72.80
2017-12-01T16:38:12.992Z,74.60
2017-12-01T16:40:43.539Z,73.90
2017-12-01T16:43:11.686Z,75.50
2017-12-01T16:45:41.315Z,77.60
2017-12-01T16:48:09.506Z,78.70
2017-12-01T16:50:39.265Z,80.00
2017-12-01T16:53:08.278Z,80.40
2017-12-01T16:55:40.902Z,80.40
2017-12-01T16:58:09.080Z,81.60
2017-12-01T17:00:38.451Z,82.20
2017-12-01T17:03:06.638Z,80.40
2017-12-01T17:05:36.807Z,81.00
2017-12-01T17:08:04.993Z,80.80
2017-12-01T17:10:34.698Z,80.20
2017-12-01T17:13:02.932Z,79.40
2017-12-01T17:15:31.143Z,78.90
2017-12-01T17:17:59.290Z,79.00
2017-12-01T17:20:29.747Z,77.90
2017-12-01T17:22:57.923Z,77.00
2017-12-01T17:25:26.886Z,77.70
2017-12-01T17:27:55.374Z,77.70
2017-12-01T17:30:31.979Z,76.70
2017-12-01T17:33:04.225Z,77.60
2017-12-01T17:35:32.428Z,76.70
2017-12-01T17:38:07.039Z,74.30
2017-12-01T17:40:38.944Z,72.60
2017-12-01T17:43:07.263Z,73.90
2017-12-01T17:45:38.197Z,74.40
2017-12-01T17:48:06.416Z,75.30
2017-12-01T17:50:49.451Z,76.90
2017-12-01T17:53:17.731Z,76.70
2017-12-01T17:55:48.393Z,75.20
2017-12-01T17:58:16.549Z,74.00
2017-12-01T18:00:54.011Z,75.20
2017-12-01T18:03:22.187Z,75.80
2017-12-01T18:05:55.635Z,75.20
2017-12-01T18:08:23.835Z,74.70
2017-12-01T18:11:00.425Z,74.60
2017-12-01T18:13:28.597Z,74.60
2017-12-01T18:15:59.971Z,73.70
2017-12-01T18:18:28.126Z,75.00
2017-12-01T18:20:59.061Z,76.10
2017-12-01T18:23:27.238Z,78.30
2017-12-01T18:25:57.484Z,74.00
2017-12-01T18:28:25.797Z,75.10
2017-12-01T18:30:55.774Z,74.30
2017-12-01T18:33:23.979Z,73.90
2017-12-01T18:35:55.287Z,75.00
2017-12-01T18:38:23.586Z,74.60
2017-12-01T18:41:07.645Z,74.20
2017-12-01T18:43:35.803Z,76.10
2017-12-01T18:46:08.053Z,77.40
2017-12-01T18:48:36.254Z,78.70
2017-12-01T18:51:09.985Z,75.50
2017-12-01T18:53:38.213Z,73.30
2017-12-01T18:56:06.497Z,70.10
2017-12-01T18:58:34.665Z,72.00
2017-12-01T19:01:04.591Z,71.70
2017-12-01T19:03:32.800Z,71.30
2017-12-01T19:06:03.031Z,72.80
2017-12-01T19:08:32.415Z,73.70
2017-12-01T19:11:07.270Z,74.20
2017-12-01T19:13:35.810Z,72.50
2017-12-01T19:16:04.443Z,73.40
2017-12-01T19:18:32.922Z,73.00
2017-12-01T19:21:07.747Z,73.90
2017-12-01T19:23:42.693Z,73.20
2017-12-01T19:26:14.207Z,74.70
2017-12-01T19:28:43.628Z,73.20
2017-12-01T19:31:12.302Z,72.50
2017-12-01T19:33:40.828Z,72.90
2017-12-01T19:36:09.333Z,73.40
2017-12-01T19:38:37.784Z,72.70
2017-12-01T19:41:08.338Z,70.40
2017-12-01T19:43:36.840Z,71.00
2017-12-01T19:46:05.319Z,70.60
2017-12-01T19:48:33.807Z,68.40
2017-12-01T19:51:05.671Z,69.30
2017-12-01T19:53:34.349Z,70.00
2017-12-01T19:56:03.484Z,68.10
2017-12-01T19:58:32.125Z,67.60
2017-12-01T20:01:04.370Z,65.60
2017-12-01T20:03:35.582Z,67.00
2017-12-01T20:06:04.187Z,66.60
2017-12-01T20:08:32.788Z,66.60
2017-12-01T20:11:01.340Z,65.90
2017-12-01T20:13:29.967Z,68.00
2017-12-01T20:15:59.442Z,66.40
2017-12-01T20:18:28.036Z,66.80
2017-12-01T20:21:05.255Z,67.40
2017-12-01T20:23:33.712Z,67.10
2017-12-01T20:26:04.409Z,69.10
2017-12-01T20:28:33.474Z,68.70
2017-12-01T20:31:02.081Z,67.90
2017-12-01T20:33:30.584Z,67.90
2017-12-01T20:35:59.832Z,67.00
2017-12-01T20:38:29.041Z,69.40
2017-12-01T20:41:07.597Z,69.40
2017-12-01T20:43:36.126Z,69.20
2017-12-01T20:46:04.481Z,69.10
2017-12-01T20:48:32.758Z,70.00
2017-12-01T20:51:00.976Z,69.00
2017-12-01T20:53:29.936Z,68.50
2017-12-01T20:55:58.102Z,68.50
2017-12-01T20:58:26.274Z,67.10
2017-12-01T21:00:54.463Z,67.00
2017-12-01T21:03:22.691Z,68.30
2017-12-01T21:05:50.845Z,69.60
2017-12-01T21:08:20.068Z,69.30
2017-12-01T21:10:51.050Z,67.10
2017-12-01T21:13:19.215Z,67.10
2017-12-01T21:15:48.164Z,68.30
2017-12-01T21:18:17.125Z,70.50
2017-12-01T21:20:46.202Z,70.40
2017-12-01T21:23:14.362Z,70.30
2017-12-01T21:25:42.614Z,70.50
2017-12-01T21:28:10.773Z,69.90
2017-12-01T21:30:38.948Z,67.60
2017-12-01T21:33:08.658Z,69.60
2017-12-01T21:35:36.853Z,69.60
2017-12-01T21:38:05.051Z,71.80
2017-12-01T21:40:39.295Z,74.10
2017-12-01T21:43:13.861Z,74.90
2017-12-01T21:45:43.074Z,71.90
2017-12-01T21:48:11.361Z,71.90
2017-12-01T21:50:39.644Z,70.70
2017-12-01T21:53:07.835Z,71.20
2017-12-01T21:55:35.987Z,71.40
2017-12-01T21:58:07.742Z,71.70
2017-12-01T22:00:36.035Z,70.50
2017-12-01T22:03:04.196Z,69.30
2017-12-01T22:05:32.390Z,69.10
2017-12-01T22:08:00.542Z,69.60
2017-12-01T22:10:30.769Z,69.60
2017-12-01T22:13:03.216Z,69.30
2017-12-01T22:15:32.182Z,70.00
2017-12-01T22:18:00.346Z,70.00
2017-12-01T22:20:30.664Z,68.90
2017-12-01T22:22:58.844Z,69.90
2017-12-01T22:25:28.190Z,71.20
2017-12-01T22:27:56.352Z,69.30
2017-12-01T22:30:25.886Z,67.90
2017-12-01T22:32:54.070Z,67.90
2017-12-01T22:35:22.241Z,68.20
2017-12-01T22:37:50.416Z,66.60
2017-12-01T22:40:18.686Z,66.80
2017-12-01T22:42:46.841Z,66.80
2017-12-01T22:45:15.055Z,68.30
2017-12-01T22:47:43.229Z,68.70
2017-12-01T22:50:11.423Z,68.00
2017-12-01T22:52:39.561Z,66.20
2017-12-01T22:55:07.733Z,66.10
2017-12-01T22:57:37.516Z,66.40
2017-12-01T23:00:06.542Z,65.90
2017-12-01T23:02:34.697Z,65.90
2017-12-01T23:05:02.883Z,65.90
2017-12-01T23:07:31.838Z,67.90
2017-12-01T23:10:03.593Z,68.20
2017-12-01T23:12:31.748Z,68.10
2017-12-01T23:15:04.993Z,68.10
2017-12-01T23:17:33.189Z,67.30
2017-12-01T23:20:09.407Z,68.40
2017-12-01T23:22:38.416Z,70.90
2017-12-01T23:25:06.578Z,70.90
2017-12-01T23:27:35.528Z,69.50
2017-12-01T23:30:09.458Z,69.50
2017-12-01T23:32:37.610Z,69.60
2017-12-01T23:35:09.237Z,72.00
2017-12-01T23:37:37.474Z,72.10
2017-12-01T23:40:05.817Z,70.60
2017-12-01T23:42:33.990Z,71.30
2017-12-01T23:45:02.175Z,71.40
2017-12-01T23:47:30.359Z,68.50
2017-12-01T23:49:58.518Z,69.00
2017-12-01T23:52:26.686Z,68.60
2017-12-01T23:54:54.846Z,69.80
2017-12-01T23:57:23.039Z,67.90
2017-12-01T23:59:57.012Z,68.90
